• Join FlightAware (Why Join?)
  • Login
  • US Flag 
10:53AM EDT


 

Airport Tracker/Info


-or-


 

Live Flight TrackerFlight Track Log ✈ N27XP ✈ 31-Mar-2014 ✈ KGMU - KSOP

Flight Track Log - Related Links

Times and Time Zones

All times are in EDT time to prevent confusion due to time zone crossing. See the N27XP flight status page for this flight to view local times or setup timezone preferences in your user account.

Time Position Orientation Groundspeed Altitude Reporting Facility
EDT Latitude Longitude Course Direction KTS MPH feet Rate Location/Type
07:59AM 34.6375 -82.2992 165° South 271 312 9,500  Level Atlanta Center
08:00AM 34.5600 -82.2808 169° South 281 323 12,200 1,740 Climbing Atlanta Center
08:01AM 34.5275 -82.1881 113° Southeast 266 306 13,000 360 Climbing Atlanta Center
08:02AM 34.9671 -81.8318 73° East  Level FlightAware Approximate
08:02AM 34.5633 -82.0714 70° East 274 315 13,000  Level Atlanta Center
08:03AM 34.6200 -81.9639 57° Northeast 313 360 13,600 900 Climbing Atlanta Center
08:04AM 34.7000 -81.8861 39° Northeast 329 379 14,800 1,200 Climbing Atlanta Center
08:05AM 34.7736 -81.7983 44° Northeast 350 403 16,000 1,080 Climbing Atlanta Center
08:06AM 34.8278 -81.6881 59° Northeast 368 423 17,000 480 Climbing Atlanta Center
08:07AM 34.8858 -81.5700 59° Northeast 388 447 17,000  Level Atlanta Center
08:08AM 34.9442 -81.4517 59° Northeast 399 459 17,000  Level Atlanta Center
08:09AM 35.0039 -81.3306 59° Northeast 405 466 17,000  Level Atlanta Center
08:10AM 35.0492 -81.2047 66° East 405 466 17,000  Level Atlanta Center
08:11AM 35.0628 -81.0700 83° East 393 452 17,000 -300 Level Atlanta Center
08:12AM 35.0706 -80.9656 85° East 405 466 16,500 -840 Descending Atlanta Center
08:12AM 35.0778 -80.9197 79° East 400 460 16,200 -1,020 Descending Atlanta Center
08:13AM 35.0931 -80.7844 82° East 405 466 15,200 -1,140 Descending Atlanta Center
08:14AM 35.1064 -80.6569 83° East 408 470 14,100 -1,320 Descending Atlanta Center
08:14AM 35.1081 -80.6469 78° East 410 472 13,900 -1,320 Descending Atlanta Center
08:15AM 35.1233 -80.5242 81° East 393 452 12,800 -1,200 Descending Atlanta Center
08:15AM 35.1211 -80.5142 105° East 410 472 12,700 -1,200 Descending Atlanta Center
08:16AM 35.1342 -80.3969 82° East 374 430 11,600 -1,200 Descending Atlanta Center
08:16AM 35.1361 -80.3867 77° East 398 458 11,500 -1,860 Descending Atlanta Center
08:17AM 35.1472 -80.2719 83° East 369 425 9,700 -1,200 Descending Atlanta Center
08:18AM 35.1586 -80.1647 83° East 337 388 9,100 -300 Descending Atlanta Center
08:19AM 35.1697 -80.0600 83° East 318 366 9,100 -60 Level Atlanta Center
08:20AM 35.1789 -79.9603 84° East 318 366 9,000 -480 Descending Atlanta Center
08:21AM 35.1900 -79.8531 83° East 312 359 8,200 -960 Descending Atlanta Center
08:22AM 35.1992 -79.7561 83° East 312 359 7,100 -1,440 Descending Atlanta Center
08:23AM 35.2056 -79.6439 86° East 307 353 5,400 -1,740 Descending Atlanta Center